Time;durP1;ratioP1;P1;durP2;ratioP2;P2;SDS_P1;SDS_P2;PMS_P1;PMS_P2;Temp;Humidity;BMP_temperature;BMP_pressure;BME280_temperature;BME280_humidity;BME280_pressure;Samples;Min_cycle;Max_cycle;Signal;HPM_P1;HPM_P2
2022/06/10 00:01:26;366071.00;1.22;631.48;0.00;0.00;0.62;;;;;17.00;1.00;;;;;;2284923;60;1073;-86
2022/06/10 00:03:53;188021.00;0.63;325.30;0.00;0.00;0.62;;;;;17.00;1.00;;;;;;2284852;60;1095;-87
2022/06/10 00:06:19;108391.00;0.36;188.05;0.00;0.00;0.62;;;;;17.50;1.00;;;;;;2284755;60;1729;-88
2022/06/10 00:08:49;124447.00;0.41;215.75;0.00;0.00;0.62;;;;;17.50;1.00;;;;;;2284867;60;925;-86
2022/06/10 00:11:16;184483.00;0.61;319.21;0.00;0.00;0.62;;;;;17.40;1.00;;;;;;2284769;60;1127;-86
2022/06/10 00:13:45;202692.00;0.68;350.56;0.00;0.00;0.62;;;;;17.50;1.00;;;;;;2284596;60;1035;-85
2022/06/10 00:16:15;69835.00;0.23;121.48;0.00;0.00;0.62;;;;;17.30;1.00;;;;;;2284744;60;1927;-84
2022/06/10 00:18:42;281843.00;0.94;486.71;22747.00;0.08;40.03;;;;;17.00;1.00;;;;;;2284851;60;1139;-88
2022/06/10 00:21:12;179640.00;0.60;310.87;0.00;0.00;0.62;;;;;17.00;1.00;;;;;;2284800;60;1085;-87
2022/06/10 00:23:39;198448.00;0.66;343.25;0.00;0.00;0.62;;;;;16.90;1.00;;;;;;2284819;60;1111;-87
2022/06/10 00:26:07;244392.00;0.81;422.31;0.00;0.00;0.62;;;;;17.10;1.00;;;;;;2284804;60;1388;-86
2022/06/10 00:28:34;284703.00;0.95;491.62;37387.00;0.12;65.37;;;;;17.30;1.00;;;;;;2284814;60;2031;-86
2022/06/10 00:31:01;159424.00;0.53;276.05;0.00;0.00;0.62;;;;;17.20;1.00;;;;;;2284810;60;1093;-86
2022/06/10 00:33:33;187818.00;0.63;324.95;0.00;0.00;0.62;;;;;16.80;1.00;;;;;;2284791;60;1017;-85
2022/06/10 00:36:00;3060.00;0.01;5.92;0.00;0.00;0.62;;;;;16.70;1.00;;;;;;2284626;60;1919;-88
2022/06/10 00:38:27;183100.00;0.61;316.83;0.00;0.00;0.62;;;;;16.70;1.00;;;;;;2284789;60;893;-85
2022/06/10 00:40:57;353384.00;1.18;609.68;0.00;0.00;0.62;;;;;17.10;1.00;;;;;;2284712;60;1723;-86
2022/06/10 00:43:26;474889.00;1.58;818.60;97186.00;0.32;168.71;;;;;16.90;1.00;;;;;;2284657;60;1056;-85
2022/06/10 00:46:00;59129.00;0.20;102.97;0.00;0.00;0.62;;;;;17.00;1.00;;;;;;2284666;60;1335;-86
2022/06/10 00:48:36;0.00;0.00;0.62;0.00;0.00;0.62;;;;;17.10;1.00;;;;;;2284564;60;971;-88
2022/06/10 00:51:12;159456.00;0.53;276.10;0.00;0.00;0.62;;;;;17.40;1.00;;;;;;2284728;60;1006;-86
2022/06/10 00:53:39;142920.00;0.48;247.60;0.00;0.00;0.62;;;;;17.10;1.00;;;;;;2284576;60;1781;-87
2022/06/10 00:56:11;74370.00;0.25;129.31;0.00;0.00;0.62;;;;;17.20;1.00;;;;;;2284680;60;2013;-85
2022/06/10 00:58:43;294715.00;0.98;508.83;0.00;0.00;0.62;;;;;17.40;1.00;;;;;;2284769;60;1136;-85
2022/06/10 01:01:12;29287.00;0.10;51.35;0.00;0.00;0.62;;;;;17.60;1.00;;;;;;2284712;60;1059;-85
2022/06/10 01:03:42;138677.00;0.46;240.29;6207.00;0.02;11.38;;;;;17.60;1.00;;;;;;2284617;60;1074;-88
2022/06/10 01:06:09;224462.00;0.75;388.02;0.00;0.00;0.62;;;;;17.60;1.00;;;;;;2284710;60;1371;-86
2022/06/10 01:08:38;316233.00;1.05;545.82;75096.00;0.25;130.57;;;;;17.50;1.00;;;;;;2284626;60;1949;-85
2022/06/10 01:11:23;83193.00;0.28;144.55;0.00;0.00;0.62;;;;;17.60;1.00;;;;;;2284670;60;982;-85
2022/06/10 01:14:02;129676.00;0.43;224.77;0.00;0.00;0.62;;;;;17.30;1.00;;;;;;2284651;60;1105;-85
2022/06/10 01:16:38;201364.00;0.67;348.27;0.00;0.00;0.62;;;;;16.50;1.00;;;;;;2284571;60;2206;-86
2022/06/10 01:19:28;420574.00;1.40;725.18;0.00;0.00;0.62;;;;;16.50;1.00;;;;;;2284608;60;1065;-86
2022/06/10 01:22:32;154872.00;0.52;268.20;0.00;0.00;0.62;;;;;16.50;1.00;;;;;;2284691;60;1111;-85
2022/06/10 01:25:44;160635.00;0.54;278.13;0.00;0.00;0.62;;;;;16.80;1.00;;;;;;2284487;60;1593;-85
2022/06/10 01:28:21;30604.00;0.10;53.63;0.00;0.00;0.62;;;;;17.10;1.00;;;;;;2284703;60;1094;-86
2022/06/10 01:31:09;1471.00;0.00;3.17;0.00;0.00;0.62;;;;;16.70;1.00;;;;;;2284613;60;1086;-86
2022/06/10 01:33:54;89313.00;0.30;155.12;0.00;0.00;0.62;;;;;16.70;1.00;;;;;;2284654;60;1139;-86
2022/06/10 01:36:28;596745.00;1.99;1028.60;49482.00;0.16;86.29;;;;;16.60;1.00;;;;;;2284469;60;1906;-86
2022/06/10 01:39:05;727473.00;2.42;1254.91;74069.00;0.25;128.79;;;;;16.80;1.00;;;;;;2284610;60;1097;-87
2022/06/10 01:41:40;1001662.00;3.34;1735.42;130062.00;0.43;225.44;;;;;16.70;1.00;;;;;;2284508;60;1038;-86
2022/06/10 01:44:16;684589.00;2.28;1180.52;44289.00;0.15;77.31;;;;;16.70;1.00;;;;;;2284534;60;940;-86
2022/06/10 01:46:52;809850.00;2.70;1398.31;49509.00;0.17;86.34;;;;;16.90;1.00;;;;;;2284499;60;1504;-86
2022/06/10 01:49:24;1035221.00;3.45;1794.95;58424.00;0.19;101.75;;;;;17.40;1.00;;;;;;2284550;60;964;-86
2022/06/10 01:51:58;986928.00;3.29;1709.33;37534.00;0.13;65.62;;;;;17.50;1.00;;;;;;2284543;60;1076;-86
2022/06/10 01:54:34;975116.00;3.25;1688.45;112272.00;0.37;194.75;;;;;17.30;1.00;;;;;;2284572;60;1026;-86
2022/06/10 01:59:34;1993059.00;6.64;3610.08;113762.00;0.38;197.32;;;;;17.90;1.00;;;;;;2286092;60;1498;-86
2022/06/10 02:02:07;1172533.00;3.91;2040.64;81588.00;0.27;141.78;;;;;18.20;1.00;;;;;;2284562;60;1130;-86
2022/06/10 02:04:39;970480.00;3.23;1680.26;88542.00;0.30;153.79;;;;;18.10;1.00;;;;;;2284506;60;1069;-87
2022/06/10 02:07:11;1211869.00;4.04;2111.69;32040.00;0.11;56.11;;;;;18.00;1.00;;;;;;2284436;60;1481;-86
2022/06/10 02:09:43;1087818.00;3.63;1888.65;207071.00;0.69;358.09;;;;;17.70;1.00;;;;;;2284452;60;1029;-88
2022/06/10 02:12:17;1275500.00;4.25;2227.34;112347.00;0.37;194.88;;;;;17.70;1.00;;;;;;2284511;60;1003;-86
2022/06/10 02:14:51;1045062.00;3.48;1812.45;105508.00;0.35;183.08;;;;;17.80;1.00;;;;;;2284454;60;995;-86
2022/06/10 02:17:21;995890.00;3.32;1725.19;31931.00;0.11;55.93;;;;;17.70;1.00;;;;;;2284392;60;1923;-86
2022/06/10 02:19:54;1117394.00;3.72;1941.56;126962.00;0.42;220.09;;;;;17.80;1.00;;;;;;2284402;60;936;-85
2022/06/10 02:22:27;1357959.00;4.53;2378.58;185001.00;0.62;320.10;;;;;17.90;1.00;;;;;;2284328;60;896;-86
2022/06/10 02:25:01;942475.00;3.14;1630.85;99419.00;0.33;172.57;;;;;17.90;1.00;;;;;;2284439;60;1105;-85
2022/06/10 02:27:35;928477.00;3.09;1606.19;48196.00;0.16;84.07;;;;;17.90;1.00;;;;;;2284338;60;1454;-85
2022/06/10 02:30:07;798064.00;2.66;1377.75;19434.00;0.06;34.29;;;;;18.00;1.00;;;;;;2284522;60;1010;-86
2022/06/10 02:32:38;993017.00;3.31;1720.11;63107.00;0.21;109.85;;;;;18.10;1.00;;;;;;2284450;60;1101;-86
2022/06/10 02:35:07;856263.00;2.85;1479.43;107836.00;0.36;187.10;;;;;17.80;1.00;;;;;;2284300;60;982;-85
2022/06/10 02:37:43;941508.00;3.14;1629.14;122734.00;0.41;212.80;;;;;17.60;1.00;;;;;;2284511;60;1923;-85
2022/06/10 02:40:22;1101718.00;3.67;1913.50;87049.00;0.29;151.21;;;;;16.80;1.00;;;;;;2285026;60;1058;-86
2022/06/10 02:43:02;973136.00;3.24;1684.95;19421.00;0.06;34.27;;;;;16.80;1.00;;;;;;2285190;60;998;-85
2022/06/10 02:45:36;822377.00;2.74;1420.18;41725.00;0.14;72.87;;;;;16.80;1.00;;;;;;2285024;60;1403;-85
2022/06/10 02:48:15;1025830.00;3.42;1778.27;115363.00;0.38;200.08;;;;;17.10;1.00;;;;;;2285072;60;1013;-86
2022/06/10 02:50:45;1008039.00;3.36;1746.71;70699.00;0.24;122.97;;;;;17.00;1.00;;;;;;2285058;60;1140;-87
2022/06/10 02:53:13;1206918.00;4.02;2102.73;32167.00;0.11;56.33;;;;;17.00;1.00;;;;;;2285039;60;1600;-86
2022/06/10 02:55:40;891107.00;2.97;1540.51;65052.00;0.22;113.21;;;;;17.30;1.00;;;;;;2285104;60;1257;-86
2022/06/10 03:01:16;84989.00;0.28;147.65;0.00;0.00;0.62;;;;;17.20;1.00;;;;;;2285062;60;697;-88
2022/06/10 03:04:07;767142.00;2.56;1323.88;50507.00;0.17;88.06;;;;;16.90;1.00;;;;;;2284997;60;990;-86
2022/06/10 03:06:42;641964.00;2.14;1106.74;34290.00;0.11;60.01;;;;;16.50;1.00;;;;;;2284893;60;1426;-85
2022/06/10 03:09:18;1004730.00;3.35;1740.85;62885.00;0.21;109.46;;;;;16.50;1.00;;;;;;2285049;60;1447;-86
2022/06/10 03:11:56;417507.00;1.39;719.90;75482.00;0.25;131.23;;;;;16.70;1.00;;;;;;2285028;60;1671;-87
2022/06/10 03:14:34;609551.00;2.03;1050.71;26223.00;0.09;46.04;;;;;16.80;1.00;;;;;;2285008;60;1047;-86
2022/06/10 03:17:16;377646.00;1.26;651.38;0.00;0.00;0.62;;;;;17.00;1.00;;;;;;2285013;60;1988;-87
2022/06/10 03:19:58;215226.00;0.72;372.13;0.00;0.00;0.62;;;;;17.10;1.00;;;;;;2284918;60;1755;-86
2022/06/10 03:22:41;161533.00;0.54;279.68;0.00;0.00;0.62;;;;;17.30;1.00;;;;;;2284941;60;1600;-87
2022/06/10 03:25:18;577622.00;1.93;995.60;41565.00;0.14;72.60;;;;;17.50;1.00;;;;;;2284970;60;1482;-85
2022/06/10 03:27:53;752996.00;2.51;1299.27;64346.00;0.21;111.99;;;;;17.50;1.00;;;;;;2284952;60;1498;-85
2022/06/10 03:30:26;728247.00;2.43;1256.26;87570.00;0.29;152.11;;;;;17.60;1.00;;;;;;2285040;60;1582;-86
2022/06/10 03:32:59;1147897.00;3.83;1996.30;93348.00;0.31;162.09;;;;;17.70;1.00;;;;;;2284938;60;1110;-86
2022/06/10 03:35:33;759323.00;2.53;1310.27;48872.00;0.16;85.24;;;;;17.30;1.00;;;;;;2285016;60;1367;-86
2022/06/10 03:38:03;875633.00;2.92;1513.36;73810.00;0.25;128.34;;;;;17.50;1.00;;;;;;2284999;60;1984;-86
2022/06/10 03:40:32;1060298.00;3.53;1839.57;77989.00;0.26;135.56;;;;;17.40;1.00;;;;;;2284967;60;1059;-86
2022/06/10 03:43:02;119823840.00;399.41;69691904.00;41029.00;0.14;71.67;;;;;17.30;1.00;;;;;;2284986;60;1042;-87
2022/06/10 03:45:36;475554.00;1.59;819.75;0.00;0.00;0.62;;;;;17.30;1.00;;;;;;2284861;60;1417;-87
2022/06/10 03:48:03;687780.00;2.29;1186.05;14861.00;0.05;26.37;;;;;17.10;1.00;;;;;;2284873;60;1035;-86
2022/06/10 03:50:36;860033.00;2.87;1486.03;2280.00;0.01;4.57;;;;;16.90;1.00;;;;;;2284736;60;1046;-86
2022/06/10 03:53:04;724350.00;2.41;1249.49;55760.00;0.19;97.15;;;;;16.80;1.00;;;;;;2284909;60;1559;-88
2022/06/10 03:55:31;1173949.00;3.91;2043.19;117762.00;0.39;204.22;;;;;16.90;1.00;;;;;;2284773;60;1271;-86
2022/06/10 03:57:58;708131.00;2.36;1221.34;11658.00;0.04;20.82;;;;;16.60;1.00;;;;;;2284739;60;2001;-86
2022/06/10 04:00:28;1044288.00;3.48;1811.07;78934.00;0.26;137.20;;;;;16.70;1.00;;;;;;2284763;60;1571;-87
2022/06/10 04:02:55;1095147.00;3.65;1901.75;32134.00;0.11;56.28;;;;;16.60;1.00;;;;;;2284868;60;1664;-87
2022/06/10 04:05:22;671853.00;2.24;1158.46;83439.00;0.28;144.98;;;;;16.20;1.00;;;;;;2284629;60;1479;-86
2022/06/10 04:07:51;837079.00;2.79;1445.87;131846.00;0.44;228.51;;;;;16.40;1.00;;;;;;2284802;60;1024;-86
2022/06/10 04:10:21;1087832.00;3.63;1888.68;76467.00;0.25;132.93;;;;;16.60;1.00;;;;;;2284763;60;956;-86
2022/06/10 04:12:48;950336.00;3.17;1644.70;43140.00;0.14;75.32;;;;;16.80;1.00;;;;;;2284868;60;1370;-88
2022/06/10 04:15:16;579582.00;1.93;998.98;8173.00;0.03;14.78;;;;;17.00;1.00;;;;;;2284808;55;3745;-86
2022/06/10 04:17:44;1035310.00;3.45;1795.11;78759.00;0.26;136.89;;;;;17.10;1.00;;;;;;2280714;61;1978;-85
2022/06/10 04:20:16;903946.00;3.01;1563.05;9944.00;0.03;17.85;;;;;16.70;1.00;;;;;;2280615;61;1064;-85
2022/06/10 04:22:42;678773.00;2.26;1170.45;32781.00;0.11;57.40;;;;;16.70;1.00;;;;;;2280717;61;941;-86
2022/06/10 04:25:11;908982.00;3.03;1571.90;56473.00;0.19;98.38;;;;;16.20;1.00;;;;;;2280691;61;1404;-86
2022/06/10 04:27:38;1070930.00;3.57;1858.51;49261.00;0.16;85.91;;;;;16.20;1.00;;;;;;2280782;61;975;-85
2022/06/10 04:30:08;938778.00;3.13;1624.33;17391.00;0.06;30.75;;;;;16.60;1.00;;;;;;2280594;61;1112;-86
2022/06/10 04:32:35;922633.00;3.08;1595.91;27778.00;0.09;48.74;;;;;16.70;1.00;;;;;;2280590;61;1016;-86
2022/06/10 04:35:02;1153175.00;3.84;2005.79;77968.00;0.26;135.53;;;;;17.00;1.00;;;;;;2280544;61;994;-87
2022/06/10 04:37:28;888774.00;2.96;1536.41;59709.00;0.20;103.97;;;;;17.20;1.00;;;;;;2280724;61;2004;-86
2022/06/10 04:39:55;899635.00;3.00;1555.48;99750.00;0.33;173.14;;;;;17.50;1.00;;;;;;2280632;61;1042;-90
2022/06/10 04:42:24;1200762.00;4.00;2091.60;89695.00;0.30;155.78;;;;;17.90;1.00;;;;;;2291941;40;3611;-86
2022/06/10 04:44:50;820953.00;2.74;1417.69;93549.00;0.31;162.44;;;;;18.10;1.00;;;;;;2284666;60;1073;-86
2022/06/10 04:47:17;444511.00;1.48;766.34;74742.00;0.25;129.95;;;;;18.30;1.00;;;;;;2284772;60;1310;-87
2022/06/10 04:49:44;117372536.00;391.24;65497956.00;78017.00;0.26;135.61;;;;;18.40;1.00;;;;;;2284786;60;1055;-86
2022/06/10 04:52:11;362099.00;1.21;624.66;83185.00;0.28;144.54;;;;;18.40;1.00;;;;;;2284777;60;1066;-85
2022/06/10 04:54:38;194494.00;0.65;336.45;76281.00;0.25;132.61;;;;;18.60;1.00;;;;;;2284578;60;1669;-87
2022/06/10 04:57:06;604445.00;2.01;1041.90;132765.00;0.44;230.10;;;;;18.60;1.00;;;;;;2284642;60;1918;-87
2022/06/10 04:59:34;201646.00;0.67;348.76;73067.00;0.24;127.06;;;;;18.70;1.00;;;;;;2284514;60;904;-86
2022/06/10 05:02:01;484577.00;1.62;835.27;72225.00;0.24;125.61;;;;;18.40;1.00;;;;;;2284455;60;1570;-86
2022/06/10 05:04:28;455834.00;1.52;785.82;66816.00;0.22;116.26;;;;;18.20;1.00;;;;;;2284590;60;1001;-86
2022/06/10 05:06:55;420519.00;1.40;725.08;78063.00;0.26;135.69;;;;;17.90;1.00;;;;;;2284649;60;1399;-88
2022/06/10 05:09:22;300183.00;1.00;518.23;83500.00;0.28;145.08;;;;;17.60;1.00;;;;;;2284514;60;992;-87
2022/06/10 05:11:49;478532.00;1.60;824.87;83369.00;0.28;144.86;;;;;17.20;1.00;;;;;;2284661;60;1098;-87
2022/06/10 05:14:16;347543.00;1.16;599.64;89708.00;0.30;155.80;;;;;17.80;1.00;;;;;;2284617;60;1019;-87
2022/06/10 05:16:44;205435.00;0.68;355.28;73110.00;0.24;127.13;;;;;17.90;1.00;;;;;;2284586;60;1290;-88
2022/06/10 05:19:12;183405.00;0.61;317.35;0.00;0.00;0.62;;;;;18.10;1.00;;;;;;2284587;60;1931;-89
2022/06/10 05:21:39;86696.00;0.29;150.60;0.00;0.00;0.62;;;;;18.40;1.00;;;;;;2284432;60;1630;-88
2022/06/10 05:24:06;187800.00;0.63;324.92;0.00;0.00;0.62;;;;;18.70;1.00;;;;;;2284506;60;1695;-87
2022/06/10 05:26:33;125541.00;0.42;217.64;0.00;0.00;0.62;;;;;18.80;1.00;;;;;;2284499;60;1383;-86
2022/06/10 05:29:00;257512.00;0.86;444.87;0.00;0.00;0.62;;;;;18.90;1.00;;;;;;2284548;60;928;-86
2022/06/10 05:31:27;414120.00;1.38;714.08;11334.00;0.04;20.26;;;;;18.70;1.00;;;;;;2284343;60;1025;-87
2022/06/10 05:36:40;0.00;0.00;0.62;0.00;0.00;0.62;;;;;19.00;1.00;;;;;;2287355;55;3802;-87
2022/06/10 05:39:07;110710.00;0.37;192.06;0.00;0.00;0.62;;;;;19.60;1.00;;;;;;2288581;60;1996;-87
2022/06/10 05:44:19;6172.00;0.02;11.32;0.00;0.00;0.62;;;;;21.50;1.00;;;;;;2288649;60;716;-87
2022/06/10 05:46:46;202069.00;0.67;349.49;0.00;0.00;0.62;;;;;23.20;1.00;;;;;;2288588;60;1776;-86
2022/06/10 05:49:14;333114.00;1.11;574.84;16538.00;0.06;29.27;;;;;24.00;1.00;;;;;;2288651;60;1066;-88
2022/06/10 05:51:41;357048.00;1.19;615.98;0.00;0.00;0.62;;;;;25.60;1.00;;;;;;2288584;60;1007;-87
2022/06/10 05:54:08;500777.00;1.67;863.16;25490.00;0.08;44.78;;;;;26.60;1.00;;;;;;2288442;60;1113;-87
2022/06/10 05:56:35;132782.00;0.44;230.13;0.00;0.00;0.62;;;;;26.90;1.00;;;;;;2288630;60;1398;-88
2022/06/10 05:59:02;133001.00;0.44;230.50;0.00;0.00;0.62;;;;;27.60;1.00;;;;;;2288372;60;1914;-87
2022/06/10 06:01:29;245084.00;0.82;423.50;0.00;0.00;0.62;;;;;28.50;1.00;;;;;;2288476;60;1023;-89
2022/06/10 06:03:56;111704.00;0.37;193.77;0.00;0.00;0.62;;;;;29.30;1.00;;;;;;2288394;60;1017;-87
2022/06/10 06:06:24;275175.00;0.92;475.24;9106.00;0.03;16.40;;;;;30.20;1.00;;;;;;2288539;60;1304;-86
2022/06/10 06:08:51;634501.00;2.12;1093.83;0.00;0.00;0.62;;;;;30.80;1.00;;;;;;2288501;60;1058;-86
2022/06/10 06:11:19;490075.00;1.63;844.74;60377.00;0.20;105.13;;;;;30.40;1.00;;;;;;2288401;60;1089;-87
2022/06/10 06:13:46;210462.00;0.70;363.93;0.00;0.00;0.62;;;;;30.40;1.00;;;;;;2288150;60;952;-86
2022/06/10 06:16:16;541555.00;1.81;933.40;8397.00;0.03;15.17;;;;;30.70;1.00;;;;;;2288087;60;1258;-87
2022/06/10 06:18:43;703935.00;2.35;1214.06;19385.00;0.06;34.21;;;;;30.90;1.00;;;;;;2288230;60;1910;-86
2022/06/10 06:21:10;800913.00;2.67;1382.72;75852.00;0.25;131.87;;;;;31.00;1.00;;;;;;2287182;60;1331;-86
2022/06/10 06:23:39;260003.00;0.87;449.15;66641.00;0.22;115.96;;;;;31.10;1.00;;;;;;2284514;60;1083;-88
2022/06/10 06:26:06;56278.00;0.19;98.04;0.00;0.00;0.62;;;;;31.90;1.00;;;;;;2284346;60;1394;-88
2022/06/10 06:28:33;141457.00;0.47;245.08;0.00;0.00;0.62;;;;;32.50;1.00;;;;;;2284481;60;1046;-87
2022/06/10 06:30:59;1149984.00;3.83;2000.05;52311.00;0.17;91.18;;;;;32.50;1.00;;;;;;2284418;60;1078;-86
2022/06/10 06:33:26;664321.00;2.21;1145.42;88355.00;0.29;153.47;;;;;32.50;1.00;;;;;;2284435;60;1120;-87
2022/06/10 06:35:55;384258.00;1.28;662.74;18614.00;0.06;32.87;;;;;32.50;1.00;;;;;;2284271;60;1348;-87
2022/06/10 06:38:24;409401.00;1.36;705.97;115264.00;0.38;199.91;;;;;32.90;1.00;;;;;;2287678;60;1993;-87
2022/06/10 06:40:52;1061463.00;3.54;1841.64;111001.00;0.37;192.56;;;;;32.80;1.00;;;;;;2288569;60;1066;-87
2022/06/10 06:43:19;334828.00;1.12;577.78;66174.00;0.22;115.15;;;;;32.30;1.00;;;;;;2288437;60;1118;-88
2022/06/10 06:45:50;672994.00;2.24;1160.44;187671.00;0.63;324.70;;;;;32.30;1.00;;;;;;2288390;60;2062;-88
2022/06/10 06:48:17;339452.00;1.13;585.73;55536.00;0.19;96.76;;;;;32.30;1.00;;;;;;2288045;60;1806;-85
2022/06/10 06:50:46;1788901.00;5.96;3199.50;184455.00;0.61;319.16;;;;;32.90;1.00;;;;;;2288510;60;1055;-87
2022/06/10 06:53:13;1455086.00;4.85;2558.89;55109.00;0.18;96.02;;;;;33.00;1.00;;;;;;2288518;60;1126;-87
2022/06/10 06:55:42;1497820.00;4.99;2639.02;169059.00;0.56;292.65;;;;;33.50;1.00;;;;;;2288419;60;1293;-87
2022/06/10 06:58:15;397771.00;1.33;685.97;62919.00;0.21;109.52;;;;;34.10;1.00;;;;;;2288355;60;1988;-86
2022/06/10 07:00:42;288103.00;0.96;497.47;65587.00;0.22;114.13;;;;;33.10;1.00;;;;;;2288356;60;1090;-86
2022/06/10 07:03:10;210603.00;0.70;364.17;33504.00;0.11;58.65;;;;;33.40;1.00;;;;;;2288467;60;1629;-87
2022/06/10 07:05:37;158445.00;0.53;274.36;9548.00;0.03;17.17;;;;;33.90;1.00;;;;;;2288454;60;1404;-87
2022/06/10 07:08:05;251764.00;0.84;434.98;0.00;0.00;0.62;;;;;34.10;1.00;;;;;;2288521;60;1041;-87
2022/06/10 07:10:32;1146243.00;3.82;1993.32;41133.00;0.14;71.85;;;;;33.10;1.00;;;;;;2288536;60;1054;-88
2022/06/10 07:12:59;690264.00;2.30;1190.36;110179.00;0.37;191.14;;;;;32.90;1.00;;;;;;2288472;60;1167;-86
2022/06/10 07:15:28;235388.00;0.78;406.82;66834.00;0.22;116.29;;;;;33.40;1.00;;;;;;2288285;60;1400;-85
2022/06/10 07:17:56;56641.00;0.19;98.67;0.00;0.00;0.62;;;;;34.10;1.00;;;;;;2288384;60;1917;-85
2022/06/10 07:20:26;181803.00;0.61;314.59;0.00;0.00;0.62;;;;;33.80;1.00;;;;;;2288327;60;1111;-87
2022/06/10 07:22:53;358765.00;1.20;618.93;0.00;0.00;0.62;;;;;33.60;1.00;;;;;;2288364;60;1053;-85
2022/06/10 07:25:22;649311.00;2.16;1119.44;0.00;0.00;0.62;;;;;33.10;1.00;;;;;;2288521;60;1350;-86
2022/06/10 07:27:52;190435.00;0.63;329.46;0.00;0.00;0.62;;;;;33.50;1.00;;;;;;2289005;60;1452;-85
2022/06/10 07:30:21;43193.00;0.14;75.41;0.00;0.00;0.62;;;;;34.20;1.00;;;;;;2289100;60;1301;-85
2022/06/10 07:32:49;209466.00;0.70;362.22;0.00;0.00;0.62;;;;;34.20;1.00;;;;;;2288861;60;1013;-86
2022/06/10 07:35:18;417459.00;1.39;719.82;0.00;0.00;0.62;;;;;34.30;1.00;;;;;;2288863;60;1379;-86
2022/06/10 07:37:46;114668.00;0.38;198.88;0.00;0.00;0.62;;;;;34.20;1.00;;;;;;2288793;60;1009;-85
2022/06/10 07:42:59;208191.00;0.69;360.02;0.00;0.00;0.62;;;;;34.10;1.00;;;;;;2288678;60;1297;-86
2022/06/10 07:45:25;118876.00;0.40;206.14;0.00;0.00;0.62;;;;;34.20;1.00;;;;;;2288905;60;1383;-86
2022/06/10 07:47:54;30899.00;0.10;54.14;0.00;0.00;0.62;;;;;34.50;1.00;;;;;;2288826;60;1712;-85
2022/06/10 07:50:23;106334.00;0.35;184.50;0.00;0.00;0.62;;;;;34.20;1.00;;;;;;2289005;60;956;-85
2022/06/10 07:52:50;288528.00;0.96;498.20;0.00;0.00;0.62;;;;;34.10;1.00;;;;;;2295215;56;3795;-85
2022/06/10 07:55:17;169130.00;0.56;292.77;0.00;0.00;0.62;;;;;34.40;1.00;;;;;;2288989;60;1390;-85
2022/06/10 07:57:44;13744.00;0.05;24.44;0.00;0.00;0.62;;;;;35.20;1.00;;;;;;2288868;60;1101;-85
2022/06/10 08:00:12;257081.00;0.86;444.13;0.00;0.00;0.62;;;;;35.10;1.00;;;;;;2288946;60;2010;-85
2022/06/10 08:02:40;110181.00;0.37;191.14;0.00;0.00;0.62;;;;;33.90;1.00;;;;;;2289001;60;964;-85
2022/06/10 08:05:16;482292.00;1.61;831.34;42123.00;0.14;73.56;;;;;34.00;1.00;;;;;;2289024;60;1114;-84
2022/06/10 08:07:43;152934.00;0.51;264.86;0.00;0.00;0.62;;;;;33.60;1.00;;;;;;2289001;60;1561;-84
2022/06/10 08:10:18;252576.00;0.84;436.38;60845.00;0.20;105.94;;;;;33.90;1.00;;;;;;2288856;60;1040;-85
2022/06/10 08:12:45;191678.00;0.64;331.60;0.00;0.00;0.62;;;;;33.90;1.00;;;;;;2288968;60;1043;-85
2022/06/10 08:15:14;228127.00;0.76;394.33;0.00;0.00;0.62;;;;;33.80;1.00;;;;;;2288930;60;1536;-86
2022/06/10 08:17:41;219117.00;0.73;378.82;0.00;0.00;0.62;;;;;34.20;1.00;;;;;;2289041;60;1116;-85
2022/06/10 08:20:18;127057.00;0.42;220.25;0.00;0.00;0.62;;;;;34.50;1.00;;;;;;2289031;60;1927;-85
2022/06/10 08:22:44;90655.00;0.30;157.44;0.00;0.00;0.62;;;;;33.40;1.00;;;;;;2288907;60;1029;-86
2022/06/10 08:25:12;355963.00;1.19;614.11;0.00;0.00;0.62;;;;;33.50;1.00;;;;;;2288817;60;1280;-87
2022/06/10 08:27:39;131988.00;0.44;228.76;0.00;0.00;0.62;;;;;33.60;1.00;;;;;;2288929;60;995;-87
2022/06/10 08:30:10;584035.00;1.95;1006.66;166459.00;0.55;288.17;;;;;33.90;1.00;;;;;;2288809;60;1110;-85
2022/06/10 08:32:37;102759.00;0.34;178.33;0.00;0.00;0.62;;;;;34.50;1.00;;;;;;2288798;60;1120;-89
2022/06/10 08:35:06;399370.00;1.33;688.72;0.00;0.00;0.62;;;;;34.30;1.00;;;;;;2288856;60;932;-85
2022/06/10 08:37:34;95147.00;0.32;165.19;0.00;0.00;0.62;;;;;34.30;1.00;;;;;;2288909;60;1568;-85
2022/06/10 08:40:01;144322.00;0.48;250.02;0.00;0.00;0.62;;;;;34.90;1.00;;;;;;2288841;60;2013;-86
2022/06/10 08:42:39;164141.00;0.55;284.17;0.00;0.00;0.62;;;;;34.60;1.00;;;;;;2288954;60;1156;-86
2022/06/10 08:45:19;48128.00;0.16;83.95;0.00;0.00;0.62;;;;;34.40;1.00;;;;;;2288938;60;1065;-85
2022/06/10 08:48:01;424997.00;1.42;732.78;25231.00;0.08;44.33;;;;;34.10;1.00;;;;;;2288909;60;1684;-86
2022/06/10 08:50:44;63908.00;0.21;111.23;0.00;0.00;0.62;;;;;33.60;1.00;;;;;;2288895;60;1060;-86
2022/06/10 08:53:34;294345.00;0.98;508.20;0.00;0.00;0.62;;;;;33.40;1.00;;;;;;2288823;60;988;-86
2022/06/10 08:56:11;200126.00;0.67;346.14;0.00;0.00;0.62;;;;;33.70;1.00;;;;;;2288878;60;1486;-86
2022/06/10 08:58:43;247724.00;0.83;428.04;0.00;0.00;0.62;;;;;32.90;1.00;;;;;;2288820;60;1910;-85
2022/06/10 09:01:17;188090.00;0.63;325.42;0.00;0.00;0.62;;;;;32.60;1.00;;;;;;2288916;60;1018;-85
2022/06/10 09:03:49;167211.00;0.56;289.46;0.00;0.00;0.62;;;;;33.50;1.00;;;;;;2288730;60;1014;-86
2022/06/10 09:06:21;113693.00;0.38;197.20;0.00;0.00;0.62;;;;;33.60;1.00;;;;;;2288635;60;1665;-85
2022/06/10 09:08:52;374979.00;1.25;646.79;49860.00;0.17;86.94;;;;;33.90;1.00;;;;;;2288797;60;1241;-86
2022/06/10 09:11:26;96137.00;0.32;166.90;0.00;0.00;0.62;;;;;32.50;1.00;;;;;;2288738;60;1097;-85
2022/06/10 09:14:01;102985.00;0.34;178.72;0.00;0.00;0.62;;;;;32.80;1.00;;;;;;2288840;60;1048;-84
2022/06/10 09:16:35;205199.00;0.68;354.87;44502.00;0.15;77.68;;;;;32.80;1.00;;;;;;2288745;60;1425;-86
2022/06/10 09:19:11;275165.00;0.92;475.22;12636.00;0.04;22.52;;;;;31.70;1.00;;;;;;2288743;60;2016;-85
2022/06/10 09:21:47;313293.00;1.04;540.77;25379.00;0.08;44.58;;;;;31.40;1.00;;;;;;2288776;60;1053;-86
2022/06/10 09:24:25;193640.00;0.65;334.98;0.00;0.00;0.62;;;;;31.40;1.00;;;;;;2288824;60;1162;-85
2022/06/10 09:27:04;112209.00;0.37;194.64;0.00;0.00;0.62;;;;;31.20;1.00;;;;;;2288769;60;1379;-85
2022/06/10 09:29:32;232116.00;0.77;401.19;0.00;0.00;0.62;;;;;30.40;1.00;;;;;;2288728;60;937;-86
2022/06/10 09:32:10;101024.00;0.34;175.34;0.00;0.00;0.62;;;;;29.90;1.00;;;;;;2288813;60;1083;-85
2022/06/10 09:34:51;86169.00;0.29;149.69;0.00;0.00;0.62;;;;;29.60;1.00;;;;;;2288779;60;1210;-86
2022/06/10 09:37:29;243742.00;0.81;421.19;0.00;0.00;0.62;;;;;28.70;1.00;;;;;;2288671;60;1710;-85
2022/06/10 09:43:17;0.00;0.00;0.62;0.00;0.00;0.62;;;;;27.50;1.00;;;;;;2288753;60;788;-86
2022/06/10 09:45:51;74322.00;0.25;129.23;0.00;0.00;0.62;;;;;27.40;1.00;;;;;;2288742;60;1465;-84
2022/06/10 09:48:38;60996.00;0.20;106.20;0.00;0.00;0.62;;;;;27.20;1.00;;;;;;2288761;60;1162;-84
2022/06/10 09:51:15;148679.00;0.50;257.53;9988.00;0.03;17.93;;;;;27.60;1.00;;;;;;2288814;60;1013;-83
2022/06/10 09:54:10;382369.00;1.27;659.50;85272.00;0.28;148.14;;;;;27.80;1.00;;;;;;2288786;60;998;-83
2022/06/10 09:57:05;55060.00;0.18;95.94;0.00;0.00;0.62;;;;;28.50;1.00;;;;;;2288746;60;1386;-84
2022/06/10 09:59:43;335199.00;1.12;578.42;0.00;0.00;0.62;;;;;28.50;1.00;;;;;;2288785;60;1914;-84
2022/06/10 10:02:24;229507.00;0.77;396.70;0.00;0.00;0.62;;;;;28.90;1.00;;;;;;2288762;60;1090;-87
2022/06/10 10:05:05;169585.00;0.57;293.55;0.00;0.00;0.62;;;;;29.00;1.00;;;;;;2288732;60;1101;-85
2022/06/10 10:07:44;541873.00;1.81;933.95;105382.00;0.35;182.86;;;;;28.40;1.00;;;;;;2288681;60;1297;-85
2022/06/10 10:10:20;110019.00;0.37;190.86;0.00;0.00;0.62;;;;;28.50;1.00;;;;;;2288519;60;1748;-84
2022/06/10 10:13:06;206552.00;0.69;357.20;0.00;0.00;0.62;;;;;27.40;1.00;;;;;;2288554;60;1121;-84
2022/06/10 10:15:42;361054.00;1.20;622.86;0.00;0.00;0.62;;;;;26.90;1.00;;;;;;2288478;60;1611;-84